Terminal Aerodrome Forecast
Issued by NWS Sioux Falls, SD

Home | Current Version | Previous Version | Graphics & Text | Print | Product List | Glossary Off
Versions: 1 2 3 4 5 6 7 8 9 10 11 12 13 14

000
FTUS43 KFSD 240800 AAC
TAFFSD
TAF AMD
KFSD 240856Z 2409/2506 13009KT P6SM -SHRA SCT025 BKN070
     FM241000 15011KT 6SM BR SCT080
     FM241200 17007KT P6SM SCT080
     FM241600 25012KT P6SM FEW035 SCT100
     FM250000 29005KT P6SM FEW150=

USA.gov is the U.S. government's official web portal to all federal, state and local government web resources and services.